Terminal Aerodrome Forecast
Issued by NWS Jackson, MS

Home | Current Version | Previous Version | Text Only | Print | Product List | Glossary On
Versions: 1 2 3 4 5 6 7 8 9 10 11 12 13 14
795
FTUS44 KJAN 142330
TAFHBG
TAF
KHBG 142330Z 1500/1524 16010KT P6SM SCT060 OVC200
     FM150600 15006KT P6SM SCT030 OVC050
     FM151000 18005KT P6SM -SHRA SCT015 OVC025
     FM152000 20012G20KT 3SM RA BR VCTS BKN015 OVC020CB
     FM152300 25010KT 4SM -RA BR BKN007 OVC015=

USA.gov is the U.S. government's official web portal to all federal, state and local government web resources and services.